sensor_id;sensor_type;location;lat;lon;timestamp;pressure;altitude;pressure_sealevel;temperature;humidity
26083;BME280;13848;49.018;12.078;2023-03-13T00:01:10;97330.50;;;4.28;93.82
26083;BME280;13848;49.018;12.078;2023-03-13T00:03:38;97328.22;;;4.25;94.19
26083;BME280;13848;49.018;12.078;2023-03-13T00:06:04;97329.25;;;4.24;94.23
26083;BME280;13848;49.018;12.078;2023-03-13T00:08:30;97321.41;;;4.22;94.59
26083;BME280;13848;49.018;12.078;2023-03-13T00:10:56;97314.06;;;4.24;94.06
26083;BME280;13848;49.018;12.078;2023-03-13T00:13:22;97313.59;;;4.21;94.64
26083;BME280;13848;49.018;12.078;2023-03-13T00:15:48;97317.81;;;4.30;93.94
26083;BME280;13848;49.018;12.078;2023-03-13T00:18:14;97305.84;;;4.26;94.17
26083;BME280;13848;49.018;12.078;2023-03-13T00:20:41;97308.66;;;4.18;94.34
26083;BME280;13848;49.018;12.078;2023-03-13T00:23:07;97303.31;;;4.18;94.44
26083;BME280;13848;49.018;12.078;2023-03-13T00:25:33;97303.69;;;4.15;94.91
26083;BME280;13848;49.018;12.078;2023-03-13T00:27:59;97297.13;;;4.17;94.56
26083;BME280;13848;49.018;12.078;2023-03-13T00:30:25;97296.94;;;4.40;96.53
26083;BME280;13848;49.018;12.078;2023-03-13T00:32:51;97289.94;;;4.61;96.13
26083;BME280;13848;49.018;12.078;2023-03-13T00:35:17;97287.81;;;4.77;95.20
26083;BME280;13848;49.018;12.078;2023-03-13T00:37:44;97282.28;;;4.58;93.67
26083;BME280;13848;49.018;12.078;2023-03-13T00:40:11;97285.13;;;4.49;93.50
26083;BME280;13848;49.018;12.078;2023-03-13T00:42:37;97276.31;;;4.27;94.16
26083;BME280;13848;49.018;12.078;2023-03-13T00:45:03;97275.06;;;4.23;95.03
26083;BME280;13848;49.018;12.078;2023-03-13T00:47:29;97276.31;;;4.27;94.46
26083;BME280;13848;49.018;12.078;2023-03-13T00:49:55;97271.78;;;4.28;94.13
26083;BME280;13848;49.018;12.078;2023-03-13T00:52:22;97275.78;;;4.17;94.76
26083;BME280;13848;49.018;12.078;2023-03-13T00:54:49;97274.66;;;4.26;94.91
26083;BME280;13848;49.018;12.078;2023-03-13T00:57:15;97271.78;;;4.28;94.69
26083;BME280;13848;49.018;12.078;2023-03-13T00:59:41;97260.25;;;4.21;94.59
26083;BME280;13848;49.018;12.078;2023-03-13T01:02:07;97255.78;;;4.28;94.61
26083;BME280;13848;49.018;12.078;2023-03-13T01:04:33;97255.84;;;4.35;94.43
26083;BME280;13848;49.018;12.078;2023-03-13T01:06:59;97260.28;;;4.27;94.45
26083;BME280;13848;49.018;12.078;2023-03-13T01:09:24;97251.22;;;4.22;94.74
26083;BME280;13848;49.018;12.078;2023-03-13T01:11:52;97240.28;;;4.17;94.98
26083;BME280;13848;49.018;12.078;2023-03-13T01:14:18;97239.91;;;4.20;95.47
26083;BME280;13848;49.018;12.078;2023-03-13T01:16:45;97234.84;;;4.25;94.54
26083;BME280;13848;49.018;12.078;2023-03-13T01:19:13;97229.50;;;4.25;94.77
26083;BME280;13848;49.018;12.078;2023-03-13T01:21:40;97231.16;;;4.26;95.11
26083;BME280;13848;49.018;12.078;2023-03-13T01:24:06;97237.56;;;4.32;94.91
26083;BME280;13848;49.018;12.078;2023-03-13T01:26:32;97233.66;;;4.34;93.78
26083;BME280;13848;49.018;12.078;2023-03-13T01:28:59;97235.38;;;4.42;94.29
26083;BME280;13848;49.018;12.078;2023-03-13T01:31:27;97232.72;;;4.42;93.76
26083;BME280;13848;49.018;12.078;2023-03-13T01:33:56;97231.66;;;4.36;94.15
26083;BME280;13848;49.018;12.078;2023-03-13T01:36:23;97229.34;;;4.33;93.90
26083;BME280;13848;49.018;12.078;2023-03-13T01:38:51;97242.34;;;4.15;95.23
26083;BME280;13848;49.018;12.078;2023-03-13T01:41:19;97241.56;;;4.21;95.94
26083;BME280;13848;49.018;12.078;2023-03-13T01:43:45;97239.16;;;4.26;95.41
26083;BME280;13848;49.018;12.078;2023-03-13T01:46:14;97238.00;;;4.35;94.71
26083;BME280;13848;49.018;12.078;2023-03-13T01:48:45;97230.00;;;4.35;95.03
26083;BME280;13848;49.018;12.078;2023-03-13T01:51:14;97240.41;;;4.30;94.79
26083;BME280;13848;49.018;12.078;2023-03-13T01:53:43;97238.22;;;4.40;94.36
26083;BME280;13848;49.018;12.078;2023-03-13T01:56:16;97237.28;;;4.48;93.13
26083;BME280;13848;49.018;12.078;2023-03-13T01:58:43;97229.63;;;4.45;93.89
26083;BME280;13848;49.018;12.078;2023-03-13T02:01:10;97219.38;;;4.42;94.18
26083;BME280;13848;49.018;12.078;2023-03-13T02:03:38;97211.44;;;4.27;95.37
26083;BME280;13848;49.018;12.078;2023-03-13T02:06:06;97203.19;;;4.22;96.02
26083;BME280;13848;49.018;12.078;2023-03-13T02:08:36;97204.09;;;4.29;95.29
26083;BME280;13848;49.018;12.078;2023-03-13T02:11:12;97222.81;;;4.36;94.98
26083;BME280;13848;49.018;12.078;2023-03-13T02:13:41;97225.72;;;4.41;94.85
26083;BME280;13848;49.018;12.078;2023-03-13T02:16:08;97217.28;;;4.37;94.85
26083;BME280;13848;49.018;12.078;2023-03-13T02:18:35;97216.50;;;4.43;94.21
26083;BME280;13848;49.018;12.078;2023-03-13T02:21:09;97206.44;;;4.45;94.06
26083;BME280;13848;49.018;12.078;2023-03-13T02:23:41;97202.03;;;4.31;94.28
26083;BME280;13848;49.018;12.078;2023-03-13T02:26:14;97193.81;;;4.33;94.74
26083;BME280;13848;49.018;12.078;2023-03-13T02:28:41;97194.41;;;4.28;95.20
26083;BME280;13848;49.018;12.078;2023-03-13T02:31:07;97194.44;;;4.35;94.53
26083;BME280;13848;49.018;12.078;2023-03-13T02:33:35;97192.22;;;4.38;94.41
26083;BME280;13848;49.018;12.078;2023-03-13T02:36:02;97177.44;;;4.36;94.50
26083;BME280;13848;49.018;12.078;2023-03-13T02:38:32;97201.16;;;4.24;95.47
26083;BME280;13848;49.018;12.078;2023-03-13T02:40:59;97197.69;;;4.23;94.98
26083;BME280;13848;49.018;12.078;2023-03-13T02:43:31;97197.47;;;4.25;95.51
26083;BME280;13848;49.018;12.078;2023-03-13T02:46:05;97205.31;;;4.33;95.68
26083;BME280;13848;49.018;12.078;2023-03-13T02:48:33;97200.63;;;4.35;95.15
26083;BME280;13848;49.018;12.078;2023-03-13T02:51:01;97206.59;;;4.37;94.92
26083;BME280;13848;49.018;12.078;2023-03-13T02:53:28;97194.69;;;4.40;94.47
26083;BME280;13848;49.018;12.078;2023-03-13T02:55:54;97191.78;;;4.35;95.69
26083;BME280;13848;49.018;12.078;2023-03-13T02:58:22;97190.81;;;4.14;96.40
26083;BME280;13848;49.018;12.078;2023-03-13T03:00:50;97191.66;;;4.15;96.25
26083;BME280;13848;49.018;12.078;2023-03-13T03:03:16;97193.34;;;4.22;95.59
26083;BME280;13848;49.018;12.078;2023-03-13T03:05:42;97195.19;;;4.22;96.05
26083;BME280;13848;49.018;12.078;2023-03-13T03:08:08;97192.03;;;4.12;96.13
26083;BME280;13848;49.018;12.078;2023-03-13T03:10:34;97187.28;;;4.07;96.81
26083;BME280;13848;49.018;12.078;2023-03-13T03:13:00;97189.75;;;4.09;96.62
26083;BME280;13848;49.018;12.078;2023-03-13T03:15:26;97195.34;;;4.14;96.33
26083;BME280;13848;49.018;12.078;2023-03-13T03:17:53;97195.38;;;4.20;96.05
26083;BME280;13848;49.018;12.078;2023-03-13T03:20:19;97195.34;;;4.14;95.99
26083;BME280;13848;49.018;12.078;2023-03-13T03:22:45;97192.50;;;4.22;97.12
26083;BME280;13848;49.018;12.078;2023-03-13T03:25:11;97187.97;;;4.16;96.54
26083;BME280;13848;49.018;12.078;2023-03-13T03:27:37;97185.09;;;4.17;96.70
26083;BME280;13848;49.018;12.078;2023-03-13T03:30:04;97183.88;;;4.20;96.35
26083;BME280;13848;49.018;12.078;2023-03-13T03:32:31;97189.28;;;4.26;96.14
26083;BME280;13848;49.018;12.078;2023-03-13T03:34:58;97178.72;;;4.12;97.20
26083;BME280;13848;49.018;12.078;2023-03-13T03:37:24;97183.50;;;4.23;96.96
26083;BME280;13848;49.018;12.078;2023-03-13T03:39:50;97183.06;;;4.19;97.29
26083;BME280;13848;49.018;12.078;2023-03-13T03:42:16;97174.03;;;4.20;96.95
26083;BME280;13848;49.018;12.078;2023-03-13T03:44:42;97176.13;;;4.25;97.25
26083;BME280;13848;49.018;12.078;2023-03-13T03:47:07;97168.16;;;4.32;96.80
26083;BME280;13848;49.018;12.078;2023-03-13T03:49:33;97167.59;;;4.36;96.81
26083;BME280;13848;49.018;12.078;2023-03-13T03:52:01;97165.16;;;4.41;95.52
26083;BME280;13848;49.018;12.078;2023-03-13T03:54:27;97155.03;;;4.30;96.52
26083;BME280;13848;49.018;12.078;2023-03-13T03:56:53;97150.75;;;4.36;96.07
26083;BME280;13848;49.018;12.078;2023-03-13T03:59:19;97143.00;;;4.41;96.29
26083;BME280;13848;49.018;12.078;2023-03-13T04:01:45;97148.19;;;4.21;96.86
26083;BME280;13848;49.018;12.078;2023-03-13T04:04:11;97142.84;;;4.21;96.96
26083;BME280;13848;49.018;12.078;2023-03-13T04:06:37;97147.81;;;4.24;97.80
26083;BME280;13848;49.018;12.078;2023-03-13T04:09:04;97135.00;;;4.13;98.01
26083;BME280;13848;49.018;12.078;2023-03-13T04:11:30;97137.66;;;4.13;98.17
26083;BME280;13848;49.018;12.078;2023-03-13T04:13:56;97138.34;;;4.21;97.44
26083;BME280;13848;49.018;12.078;2023-03-13T04:16:22;97133.34;;;4.12;98.04
26083;BME280;13848;49.018;12.078;2023-03-13T04:18:48;97135.63;;;4.15;97.91
26083;BME280;13848;49.018;12.078;2023-03-13T04:21:14;97131.09;;;4.15;98.00
26083;BME280;13848;49.018;12.078;2023-03-13T04:23:40;97112.19;;;4.10;98.11
26083;BME280;13848;49.018;12.078;2023-03-13T04:26:07;97121.34;;;3.94;98.94
26083;BME280;13848;49.018;12.078;2023-03-13T04:28:33;97125.72;;;4.09;98.19
26083;BME280;13848;49.018;12.078;2023-03-13T04:30:59;97118.84;;;4.21;97.68
26083;BME280;13848;49.018;12.078;2023-03-13T04:33:25;97105.47;;;4.14;97.78
26083;BME280;13848;49.018;12.078;2023-03-13T04:35:52;97099.69;;;4.11;97.63
26083;BME280;13848;49.018;12.078;2023-03-13T04:38:18;97095.16;;;4.11;97.21
26083;BME280;13848;49.018;12.078;2023-03-13T04:40:44;97092.31;;;4.13;97.35
26083;BME280;13848;49.018;12.078;2023-03-13T04:43:12;97088.38;;;4.09;96.99
26083;BME280;13848;49.018;12.078;2023-03-13T04:45:38;97098.03;;;4.10;97.17
26083;BME280;13848;49.018;12.078;2023-03-13T04:48:04;97090.03;;;4.10;97.42
26083;BME280;13848;49.018;12.078;2023-03-13T04:50:30;97087.22;;;4.18;96.89
26083;BME280;13848;49.018;12.078;2023-03-13T04:52:56;97085.78;;;4.22;96.90
26083;BME280;13848;49.018;12.078;2023-03-13T04:55:22;97088.66;;;4.20;95.95
26083;BME280;13848;49.018;12.078;2023-03-13T04:57:48;97095.84;;;4.20;96.31
26083;BME280;13848;49.018;12.078;2023-03-13T05:00:16;97093.97;;;4.14;97.36
26083;BME280;13848;49.018;12.078;2023-03-13T05:02:42;97091.09;;;4.15;97.08
26083;BME280;13848;49.018;12.078;2023-03-13T05:05:08;97093.97;;;4.14;97.15
26083;BME280;13848;49.018;12.078;2023-03-13T05:07:34;97099.09;;;4.15;97.19
26083;BME280;13848;49.018;12.078;2023-03-13T05:10:00;97093.41;;;4.25;96.75
26083;BME280;13848;49.018;12.078;2023-03-13T05:12:26;97082.84;;;4.10;97.33
26083;BME280;13848;49.018;12.078;2023-03-13T05:14:52;97077.56;;;4.17;97.21
26083;BME280;13848;49.018;12.078;2023-03-13T05:17:19;97081.03;;;4.17;97.43
26083;BME280;13848;49.018;12.078;2023-03-13T05:19:45;97080.88;;;4.19;97.33
26083;BME280;13848;49.018;12.078;2023-03-13T05:22:11;97065.88;;;4.18;97.91
26083;BME280;13848;49.018;12.078;2023-03-13T05:24:36;97072.03;;;4.18;97.40
26083;BME280;13848;49.018;12.078;2023-03-13T05:27:02;97059.28;;;4.14;97.89
26083;BME280;13848;49.018;12.078;2023-03-13T05:29:28;97048.19;;;4.17;97.96
26083;BME280;13848;49.018;12.078;2023-03-13T05:31:54;97044.72;;;4.16;98.06
26083;BME280;13848;49.018;12.078;2023-03-13T05:34:21;97046.75;;;4.14;98.38
26083;BME280;13848;49.018;12.078;2023-03-13T05:36:47;97055.81;;;4.20;97.95
26083;BME280;13848;49.018;12.078;2023-03-13T05:39:13;97057.88;;;4.18;98.09
26083;BME280;13848;49.018;12.078;2023-03-13T05:41:39;97061.53;;;4.17;98.30
26083;BME280;13848;49.018;12.078;2023-03-13T05:44:05;97049.22;;;4.16;98.11
26083;BME280;13848;49.018;12.078;2023-03-13T05:46:31;97048.63;;;4.14;98.86
26083;BME280;13848;49.018;12.078;2023-03-13T05:48:57;97045.16;;;4.20;98.15
26083;BME280;13848;49.018;12.078;2023-03-13T05:51:24;97029.09;;;4.07;98.82
26083;BME280;13848;49.018;12.078;2023-03-13T05:53:50;97032.38;;;4.09;99.38
26083;BME280;13848;49.018;12.078;2023-03-13T05:56:16;97048.00;;;4.12;99.56
26083;BME280;13848;49.018;12.078;2023-03-13T05:58:42;97053.59;;;4.23;99.06
26083;BME280;13848;49.018;12.078;2023-03-13T06:01:10;97038.69;;;4.36;98.45
26083;BME280;13848;49.018;12.078;2023-03-13T06:03:36;97024.28;;;4.30;98.05
26083;BME280;13848;49.018;12.078;2023-03-13T06:06:03;97035.81;;;4.37;96.94
26083;BME280;13848;49.018;12.078;2023-03-13T06:08:30;97029.19;;;4.33;97.67
26083;BME280;13848;49.018;12.078;2023-03-13T06:10:58;97030.84;;;4.34;97.92
26083;BME280;13848;49.018;12.078;2023-03-13T06:13:24;97017.72;;;4.33;98.19
26083;BME280;13848;49.018;12.078;2023-03-13T06:15:51;97023.47;;;4.30;97.98
26083;BME280;13848;49.018;12.078;2023-03-13T06:18:17;97026.13;;;4.30;99.03
26083;BME280;13848;49.018;12.078;2023-03-13T06:20:43;97025.91;;;4.31;98.36
26083;BME280;13848;49.018;12.078;2023-03-13T06:23:08;97026.53;;;4.33;98.65
26083;BME280;13848;49.018;12.078;2023-03-13T06:25:36;97015.25;;;4.31;98.66
26083;BME280;13848;49.018;12.078;2023-03-13T06:28:02;97028.97;;;4.28;99.71
26083;BME280;13848;49.018;12.078;2023-03-13T06:30:27;97025.91;;;4.31;98.85
26083;BME280;13848;49.018;12.078;2023-03-13T06:32:53;97032.06;;;4.32;99.33
26083;BME280;13848;49.018;12.078;2023-03-13T06:35:19;97027.81;;;4.44;98.80
26083;BME280;13848;49.018;12.078;2023-03-13T06:37:45;97016.56;;;4.48;98.51
26083;BME280;13848;49.018;12.078;2023-03-13T06:40:12;97009.16;;;4.50;98.14
26083;BME280;13848;49.018;12.078;2023-03-13T06:42:39;97005.06;;;4.48;97.99
26083;BME280;13848;49.018;12.078;2023-03-13T06:45:06;96997.06;;;4.54;97.62
26083;BME280;13848;49.018;12.078;2023-03-13T06:47:32;96993.59;;;4.61;97.58
26083;BME280;13848;49.018;12.078;2023-03-13T06:49:58;96991.13;;;4.52;97.57
26083;BME280;13848;49.018;12.078;2023-03-13T06:52:24;96999.28;;;4.44;98.14
26083;BME280;13848;49.018;12.078;2023-03-13T06:54:50;97005.84;;;4.42;98.81
26083;BME280;13848;49.018;12.078;2023-03-13T06:57:16;96989.22;;;4.46;98.70
26083;BME280;13848;49.018;12.078;2023-03-13T06:59:43;96988.22;;;4.47;99.16
26083;BME280;13848;49.018;12.078;2023-03-13T07:02:10;96996.84;;;4.49;99.34
26083;BME280;13848;49.018;12.078;2023-03-13T07:04:36;97003.00;;;4.57;98.64
26083;BME280;13848;49.018;12.078;2023-03-13T07:07:07;97005.53;;;4.65;97.67
26083;BME280;13848;49.018;12.078;2023-03-13T07:09:33;97006.34;;;4.72;98.36
26083;BME280;13848;49.018;12.078;2023-03-13T07:11:59;97011.25;;;4.62;97.85
26083;BME280;13848;49.018;12.078;2023-03-13T07:14:25;97000.16;;;4.58;98.19
26083;BME280;13848;49.018;12.078;2023-03-13T07:16:52;97009.00;;;4.59;98.86
26083;BME280;13848;49.018;12.078;2023-03-13T07:19:18;97012.88;;;4.63;97.61
26083;BME280;13848;49.018;12.078;2023-03-13T07:21:44;97003.06;;;4.70;98.30
26083;BME280;13848;49.018;12.078;2023-03-13T07:24:10;97009.25;;;4.77;97.66
26083;BME280;13848;49.018;12.078;2023-03-13T07:26:36;97008.03;;;4.86;97.04
26083;BME280;13848;49.018;12.078;2023-03-13T07:29:02;97001.06;;;4.98;96.98
26083;BME280;13848;49.018;12.078;2023-03-13T07:31:28;96999.19;;;4.92;96.13
26083;BME280;13848;49.018;12.078;2023-03-13T07:33:55;96998.81;;;4.95;96.99
26083;BME280;13848;49.018;12.078;2023-03-13T07:36:21;96986.06;;;4.97;96.79
26083;BME280;13848;49.018;12.078;2023-03-13T07:38:48;96993.25;;;5.03;96.82
26083;BME280;13848;49.018;12.078;2023-03-13T07:41:14;96982.56;;;5.03;96.39
26083;BME280;13848;49.018;12.078;2023-03-13T07:43:40;96987.91;;;5.03;96.83
26083;BME280;13848;49.018;12.078;2023-03-13T07:46:08;96971.69;;;5.12;96.25
26083;BME280;13848;49.018;12.078;2023-03-13T07:48:35;96978.91;;;5.04;96.62
26083;BME280;13848;49.018;12.078;2023-03-13T07:51:03;96971.91;;;5.17;96.58
26083;BME280;13848;49.018;12.078;2023-03-13T07:53:29;96980.94;;;5.16;95.90
26083;BME280;13848;49.018;12.078;2023-03-13T07:55:57;96975.19;;;5.19;96.04
26083;BME280;13848;49.018;12.078;2023-03-13T07:58:24;96980.31;;;5.20;96.17
26083;BME280;13848;49.018;12.078;2023-03-13T08:00:50;96978.91;;;5.18;95.80
26083;BME280;13848;49.018;12.078;2023-03-13T08:03:17;96982.00;;;5.28;96.01
26083;BME280;13848;49.018;12.078;2023-03-13T08:05:43;96982.16;;;5.33;94.61
26083;BME280;13848;49.018;12.078;2023-03-13T08:08:10;96977.44;;;5.42;95.67
26083;BME280;13848;49.018;12.078;2023-03-13T08:10:36;97000.88;;;5.33;94.85
26083;BME280;13848;49.018;12.078;2023-03-13T08:13:02;96987.72;;;5.31;95.41
26083;BME280;13848;49.018;12.078;2023-03-13T08:15:28;96997.59;;;5.31;94.52
26083;BME280;13848;49.018;12.078;2023-03-13T08:17:54;96981.78;;;5.23;95.74
26083;BME280;13848;49.018;12.078;2023-03-13T08:20:21;96987.13;;;5.29;95.28
26083;BME280;13848;49.018;12.078;2023-03-13T08:22:47;96986.69;;;5.39;94.51
26083;BME280;13848;49.018;12.078;2023-03-13T08:25:15;96993.09;;;5.51;94.08
26083;BME280;13848;49.018;12.078;2023-03-13T08:27:41;96995.13;;;5.36;93.73
26083;BME280;13848;49.018;12.078;2023-03-13T08:30:08;96989.19;;;5.34;94.58
26083;BME280;13848;49.018;12.078;2023-03-13T08:32:35;96989.56;;;5.38;94.04
26083;BME280;13848;49.018;12.078;2023-03-13T08:35:01;96982.38;;;5.45;94.84
26083;BME280;13848;49.018;12.078;2023-03-13T08:37:27;96972.09;;;5.55;94.38
26083;BME280;13848;49.018;12.078;2023-03-13T08:39:53;96963.22;;;5.68;94.01
26083;BME280;13848;49.018;12.078;2023-03-13T08:42:21;96966.09;;;5.66;93.82
26083;BME280;13848;49.018;12.078;2023-03-13T08:44:47;96959.91;;;5.79;93.15
26083;BME280;13848;49.018;12.078;2023-03-13T08:47:13;96961.94;;;5.90;93.51
26083;BME280;13848;49.018;12.078;2023-03-13T08:49:39;96945.88;;;6.10;93.08
26083;BME280;13848;49.018;12.078;2023-03-13T08:52:06;96950.28;;;6.36;92.86
26083;BME280;13848;49.018;12.078;2023-03-13T08:54:32;96939.13;;;6.46;91.56
26083;BME280;13848;49.018;12.078;2023-03-13T08:56:58;96941.22;;;6.37;91.75
26083;BME280;13848;49.018;12.078;2023-03-13T08:59:26;96943.53;;;6.65;91.08
26083;BME280;13848;49.018;12.078;2023-03-13T09:01:52;96931.75;;;7.04;90.35
26083;BME280;13848;49.018;12.078;2023-03-13T09:04:18;96939.50;;;7.12;88.85
26083;BME280;13848;49.018;12.078;2023-03-13T09:06:44;96936.44;;;7.34;86.26
26083;BME280;13848;49.018;12.078;2023-03-13T09:09:11;96944.44;;;7.15;88.28
26083;BME280;13848;49.018;12.078;2023-03-13T09:11:38;96948.06;;;7.28;87.19
26083;BME280;13848;49.018;12.078;2023-03-13T09:14:04;96936.56;;;7.45;85.64
26083;BME280;13848;49.018;12.078;2023-03-13T09:16:32;96923.63;;;7.61;85.77
26083;BME280;13848;49.018;12.078;2023-03-13T09:18:59;96911.28;;;7.78;85.11
26083;BME280;13848;49.018;12.078;2023-03-13T09:21:27;96906.50;;;7.80;83.93
26083;BME280;13848;49.018;12.078;2023-03-13T09:23:54;96912.22;;;8.02;84.04
26083;BME280;13848;49.018;12.078;2023-03-13T09:26:21;96897.31;;;7.88;83.46
26083;BME280;13848;49.018;12.078;2023-03-13T09:28:47;96894.78;;;7.56;83.56
26083;BME280;13848;49.018;12.078;2023-03-13T09:31:15;96904.03;;;7.60;84.08
26083;BME280;13848;49.018;12.078;2023-03-13T09:33:44;96887.63;;;7.68;85.60
26083;BME280;13848;49.018;12.078;2023-03-13T09:36:10;96897.38;;;7.81;85.01
26083;BME280;13848;49.018;12.078;2023-03-13T09:38:37;96909.69;;;7.70;84.89
26083;BME280;13848;49.018;12.078;2023-03-13T09:41:13;96889.56;;;7.43;85.76
26083;BME280;13848;49.018;12.078;2023-03-13T09:43:47;96896.88;;;7.54;86.14
26083;BME280;13848;49.018;12.078;2023-03-13T09:46:18;96884.63;;;7.58;86.59
26083;BME280;13848;49.018;12.078;2023-03-13T09:48:51;96887.03;;;7.66;86.73
26083;BME280;13848;49.018;12.078;2023-03-13T09:51:23;96878.84;;;7.61;86.44
26083;BME280;13848;49.018;12.078;2023-03-13T09:53:51;96885.34;;;7.72;86.86
26083;BME280;13848;49.018;12.078;2023-03-13T09:56:21;96876.47;;;7.90;86.44
26083;BME280;13848;49.018;12.078;2023-03-13T09:58:52;96884.50;;;7.90;86.31
26083;BME280;13848;49.018;12.078;2023-03-13T10:01:21;96882.25;;;7.87;86.65
26083;BME280;13848;49.018;12.078;2023-03-13T10:03:56;96872.63;;;7.97;86.63
26083;BME280;13848;49.018;12.078;2023-03-13T10:06:24;96870.47;;;8.06;86.75
26083;BME280;13848;49.018;12.078;2023-03-13T10:08:50;96873.38;;;8.05;86.05
26083;BME280;13848;49.018;12.078;2023-03-13T10:11:24;96871.75;;;8.04;86.27
26083;BME280;13848;49.018;12.078;2023-03-13T10:13:55;96871.91;;;7.90;86.42
26083;BME280;13848;49.018;12.078;2023-03-13T10:16:27;96878.25;;;7.96;86.61
26083;BME280;13848;49.018;12.078;2023-03-13T10:18:58;96868.31;;;7.96;86.83
26083;BME280;13848;49.018;12.078;2023-03-13T10:21:31;96874.94;;;8.12;86.29
26083;BME280;13848;49.018;12.078;2023-03-13T10:24:01;96870.31;;;8.19;86.07
26083;BME280;13848;49.018;12.078;2023-03-13T10:26:30;96868.34;;;8.26;85.70
26083;BME280;13848;49.018;12.078;2023-03-13T10:29:01;96871.53;;;8.53;85.69
26083;BME280;13848;49.018;12.078;2023-03-13T10:31:31;96877.44;;;8.44;85.28
26083;BME280;13848;49.018;12.078;2023-03-13T10:34:06;96866.97;;;8.54;85.29
26083;BME280;13848;49.018;12.078;2023-03-13T10:36:39;96870.03;;;8.69;84.63
26083;BME280;13848;49.018;12.078;2023-03-13T10:39:07;96867.19;;;9.06;84.84
26083;BME280;13848;49.018;12.078;2023-03-13T10:41:35;96859.59;;;9.26;82.69
26083;BME280;13848;49.018;12.078;2023-03-13T10:44:04;96855.63;;;9.17;82.05
26083;BME280;13848;49.018;12.078;2023-03-13T10:46:32;96853.16;;;9.16;82.07
26083;BME280;13848;49.018;12.078;2023-03-13T10:49:00;96857.28;;;9.18;82.89
26083;BME280;13848;49.018;12.078;2023-03-13T10:51:34;96854.22;;;9.26;81.40
26083;BME280;13848;49.018;12.078;2023-03-13T10:54:12;96859.28;;;9.35;81.32
26083;BME280;13848;49.018;12.078;2023-03-13T10:56:38;96860.09;;;9.47;82.10
26083;BME280;13848;49.018;12.078;2023-03-13T10:59:17;96858.03;;;9.77;80.72
26083;BME280;13848;49.018;12.078;2023-03-13T11:01:44;96849.25;;;9.94;80.00
26083;BME280;13848;49.018;12.078;2023-03-13T11:04:19;96845.69;;;10.05;78.99
26083;BME280;13848;49.018;12.078;2023-03-13T11:06:50;96842.00;;;9.82;78.48
26083;BME280;13848;49.018;12.078;2023-03-13T11:09:16;96846.13;;;10.25;79.92
26083;BME280;13848;49.018;12.078;2023-03-13T11:11:44;96852.66;;;10.29;77.55
26083;BME280;13848;49.018;12.078;2023-03-13T11:14:15;96848.25;;;10.23;77.54
26083;BME280;13848;49.018;12.078;2023-03-13T11:16:46;96835.97;;;10.44;77.64
26083;BME280;13848;49.018;12.078;2023-03-13T11:19:28;96819.28;;;10.92;76.54
26083;BME280;13848;49.018;12.078;2023-03-13T11:22:08;96835.44;;;11.43;75.63
26083;BME280;13848;49.018;12.078;2023-03-13T11:24:42;96824.63;;;11.60;74.61
26083;BME280;13848;49.018;12.078;2023-03-13T11:27:15;96830.63;;;11.67;73.79
26083;BME280;13848;49.018;12.078;2023-03-13T11:29:54;96833.47;;;11.38;73.57
26083;BME280;13848;49.018;12.078;2023-03-13T11:32:29;96829.47;;;11.07;74.60
26083;BME280;13848;49.018;12.078;2023-03-13T11:34:57;96808.31;;;10.99;75.11
26083;BME280;13848;49.018;12.078;2023-03-13T11:37:27;96810.28;;;11.04;75.25
26083;BME280;13848;49.018;12.078;2023-03-13T11:40:02;96808.69;;;11.25;75.33
26083;BME280;13848;49.018;12.078;2023-03-13T11:42:45;96801.59;;;11.18;74.37
26083;BME280;13848;49.018;12.078;2023-03-13T11:45:34;96805.72;;;11.04;75.21
26083;BME280;13848;49.018;12.078;2023-03-13T11:48:10;96812.16;;;11.20;74.46
26083;BME280;13848;49.018;12.078;2023-03-13T11:50:46;96791.13;;;11.22;74.63
26083;BME280;13848;49.018;12.078;2023-03-13T11:53:25;96801.56;;;11.35;76.21
26083;BME280;13848;49.018;12.078;2023-03-13T11:56:01;96794.53;;;11.34;74.22
26083;BME280;13848;49.018;12.078;2023-03-13T11:58:39;96794.66;;;11.23;74.53
26083;BME280;13848;49.018;12.078;2023-03-13T12:01:11;96800.31;;;11.21;75.36
26083;BME280;13848;49.018;12.078;2023-03-13T12:03:43;96795.38;;;11.18;75.08
26083;BME280;13848;49.018;12.078;2023-03-13T12:06:21;96800.66;;;11.08;74.75
26083;BME280;13848;49.018;12.078;2023-03-13T12:08:52;96798.34;;;11.00;75.65
26083;BME280;13848;49.018;12.078;2023-03-13T12:11:22;96794.28;;;10.97;75.49
26083;BME280;13848;49.018;12.078;2023-03-13T12:13:53;96790.03;;;10.84;76.14
26083;BME280;13848;49.018;12.078;2023-03-13T12:16:22;96782.59;;;10.75;76.69
26083;BME280;13848;49.018;12.078;2023-03-13T12:18:52;96779.72;;;10.81;76.94
26083;BME280;13848;49.018;12.078;2023-03-13T12:21:20;96781.53;;;10.92;76.17
26083;BME280;13848;49.018;12.078;2023-03-13T12:23:55;96782.81;;;11.07;76.56
26083;BME280;13848;49.018;12.078;2023-03-13T12:26:31;96757.13;;;11.21;76.01
26083;BME280;13848;49.018;12.078;2023-03-13T12:29:05;96760.31;;;11.57;75.87
26083;BME280;13848;49.018;12.078;2023-03-13T12:31:37;96755.53;;;12.08;74.78
26083;BME280;13848;49.018;12.078;2023-03-13T12:34:12;96756.75;;;12.49;73.50
26083;BME280;13848;49.018;12.078;2023-03-13T12:36:44;96757.34;;;12.56;73.28
26083;BME280;13848;49.018;12.078;2023-03-13T12:39:21;96744.09;;;12.55;72.43
26083;BME280;13848;49.018;12.078;2023-03-13T12:44:38;96736.38;;;12.36;71.88
26083;BME280;13848;49.018;12.078;2023-03-13T12:47:07;96735.13;;;12.49;71.90
26083;BME280;13848;49.018;12.078;2023-03-13T12:50:05;96726.88;;;12.66;71.44
26083;BME280;13848;49.018;12.078;2023-03-13T12:52:44;96723.50;;;12.86;70.93
26083;BME280;13848;49.018;12.078;2023-03-13T12:55:32;96720.25;;;12.84;70.86
26083;BME280;13848;49.018;12.078;2023-03-13T12:58:10;96714.34;;;12.92;71.04
26083;BME280;13848;49.018;12.078;2023-03-13T13:00:39;96713.09;;;13.04;71.02
26083;BME280;13848;49.018;12.078;2023-03-13T13:03:14;96709.84;;;13.08;70.31
26083;BME280;13848;49.018;12.078;2023-03-13T13:05:58;96709.91;;;12.75;70.38